<?xml version="1.0" encoding="UTF-8" standalone="no" ?>
<gpx xmlns="http://www.topografix.com/GPX/1/1" xmlns:xsi="http://www.w3.org/2001/XMLSchema-instance" xsi:schemaLocation="http://www.topografix.com/GPX/1/1 http://www.topografix.com/GPX/1/1/gpx.xsd" version="1.1" creator="VisuGPX - https://www.visugpx.com">
  <metadata>
    <name>lundi 2015 09 28 01</name>
    <desc><![CDATA[rando du lundi]]></desc>
  </metadata>
  <trk>
    <name><![CDATA[lundi 2015 09 28]]></name>
    <trkseg>
      <trkpt lat="48.85743" lon="2.34732">
        <ele>23.39999961853</ele>
        <time>2015-09-28T18:19:27.000Z</time>
      </trkpt>
      <trkpt lat="48.85701" lon="2.34708">
        <ele>95</ele>
        <time>2015-09-28T18:19:34.000Z</time>
      </trkpt>
      <trkpt lat="48.857" lon="2.34704">
        <ele>93.199996948242</ele>
        <time>2015-09-28T18:19:37.000Z</time>
      </trkpt>
      <trkpt lat="48.85718" lon="2.34697">
        <ele>51</ele>
        <time>2015-09-28T18:19:42.000Z</time>
      </trkpt>
      <trkpt lat="48.85729" lon="2.34696">
        <ele>29.39999961853</ele>
        <time>2015-09-28T18:19:43.000Z</time>
      </trkpt>
      <trkpt lat="48.85699" lon="2.34705">
        <ele>52.400001525879</ele>
        <time>2015-09-28T18:19:44.000Z</time>
      </trkpt>
      <trkpt lat="48.85685" lon="2.34703">
        <ele>53.400001525879</ele>
        <time>2015-09-28T18:19:49.000Z</time>
      </trkpt>
      <trkpt lat="48.85696" lon="2.34694">
        <ele>24</ele>
        <time>2015-09-28T18:19:54.000Z</time>
      </trkpt>
      <trkpt lat="48.85699" lon="2.34683">
        <ele>25.60000038147</ele>
        <time>2015-09-28T18:19:55.000Z</time>
      </trkpt>
      <trkpt lat="48.85694" lon="2.34683">
        <ele>14.60000038147</ele>
        <time>2015-09-28T18:19:58.000Z</time>
      </trkpt>
      <trkpt lat="48.8568" lon="2.34671">
        <ele>15</ele>
        <time>2015-09-28T18:20:05.000Z</time>
      </trkpt>
      <trkpt lat="48.85671" lon="2.34666">
        <ele>16.39999961853</ele>
        <time>2015-09-28T18:20:09.000Z</time>
      </trkpt>
      <trkpt lat="48.85663" lon="2.34661">
        <ele>18.39999961853</ele>
        <time>2015-09-28T18:20:12.000Z</time>
      </trkpt>
      <trkpt lat="48.85646" lon="2.34647">
        <ele>16.39999961853</ele>
        <time>2015-09-28T18:20:19.000Z</time>
      </trkpt>
      <trkpt lat="48.85634" lon="2.34639">
        <ele>17.799999237061</ele>
        <time>2015-09-28T18:20:23.000Z</time>
      </trkpt>
      <trkpt lat="48.85618" lon="2.34635">
        <ele>19</ele>
        <time>2015-09-28T18:20:27.000Z</time>
      </trkpt>
      <trkpt lat="48.856" lon="2.34625">
        <ele>20.39999961853</ele>
        <time>2015-09-28T18:20:32.000Z</time>
      </trkpt>
      <trkpt lat="48.85582" lon="2.34614">
        <ele>21.799999237061</ele>
        <time>2015-09-28T18:20:36.000Z</time>
      </trkpt>
      <trkpt lat="48.85569" lon="2.34602">
        <ele>22.39999961853</ele>
        <time>2015-09-28T18:20:39.000Z</time>
      </trkpt>
      <trkpt lat="48.8556" lon="2.34597">
        <ele>23</ele>
        <time>2015-09-28T18:20:41.000Z</time>
      </trkpt>
      <trkpt lat="48.85547" lon="2.34587">
        <ele>24.39999961853</ele>
        <time>2015-09-28T18:20:44.000Z</time>
      </trkpt>
      <trkpt lat="48.85538" lon="2.34582">
        <ele>25.200000762939</ele>
        <time>2015-09-28T18:20:46.000Z</time>
      </trkpt>
      <trkpt lat="48.85522" lon="2.34566">
        <ele>26.60000038147</ele>
        <time>2015-09-28T18:20:51.000Z</time>
      </trkpt>
      <trkpt lat="48.85508" lon="2.34557">
        <ele>28.39999961853</ele>
        <time>2015-09-28T18:20:55.000Z</time>
      </trkpt>
      <trkpt lat="48.85489" lon="2.34544">
        <ele>30</ele>
        <time>2015-09-28T18:21:00.000Z</time>
      </trkpt>
      <trkpt lat="48.85472" lon="2.3453">
        <ele>30.200000762939</ele>
        <time>2015-09-28T18:21:04.000Z</time>
      </trkpt>
      <trkpt lat="48.85449" lon="2.34516">
        <ele>25.200000762939</ele>
        <time>2015-09-28T18:21:08.000Z</time>
      </trkpt>
      <trkpt lat="48.85438" lon="2.34511">
        <ele>23</ele>
        <time>2015-09-28T18:21:10.000Z</time>
      </trkpt>
      <trkpt lat="48.85423" lon="2.3449">
        <ele>22.39999961853</ele>
        <time>2015-09-28T18:21:14.000Z</time>
      </trkpt>
      <trkpt lat="48.85408" lon="2.3447">
        <ele>23</ele>
        <time>2015-09-28T18:21:19.000Z</time>
      </trkpt>
      <trkpt lat="48.85401" lon="2.3446">
        <ele>23.39999961853</ele>
        <time>2015-09-28T18:21:22.000Z</time>
      </trkpt>
      <trkpt lat="48.85391" lon="2.34445">
        <ele>23</ele>
        <time>2015-09-28T18:21:27.000Z</time>
      </trkpt>
      <trkpt lat="48.85385" lon="2.34434">
        <ele>23.39999961853</ele>
        <time>2015-09-28T18:21:31.000Z</time>
      </trkpt>
      <trkpt lat="48.8538" lon="2.34419">
        <ele>22.60000038147</ele>
        <time>2015-09-28T18:21:35.000Z</time>
      </trkpt>
      <trkpt lat="48.85362" lon="2.34405">
        <ele>22.39999961853</ele>
        <time>2015-09-28T18:21:41.000Z</time>
      </trkpt>
      <trkpt lat="48.85342" lon="2.34397">
        <ele>22.60000038147</ele>
        <time>2015-09-28T18:21:47.000Z</time>
      </trkpt>
      <trkpt lat="48.85321" lon="2.34386">
        <ele>23.39999961853</ele>
        <time>2015-09-28T18:21:53.000Z</time>
      </trkpt>
      <trkpt lat="48.85302" lon="2.34377">
        <ele>25.200000762939</ele>
        <time>2015-09-28T18:21:58.000Z</time>
      </trkpt>
      <trkpt lat="48.8528" lon="2.34372">
        <ele>28.39999961853</ele>
        <time>2015-09-28T18:22:03.000Z</time>
      </trkpt>
      <trkpt lat="48.85261" lon="2.34369">
        <ele>31.799999237061</ele>
        <time>2015-09-28T18:22:08.000Z</time>
      </trkpt>
      <trkpt lat="48.85243" lon="2.34361">
        <ele>33.400001525879</ele>
        <time>2015-09-28T18:22:13.000Z</time>
      </trkpt>
      <trkpt lat="48.85222" lon="2.34353">
        <ele>36</ele>
        <time>2015-09-28T18:22:18.000Z</time>
      </trkpt>
      <trkpt lat="48.85204" lon="2.34342">
        <ele>38</ele>
        <time>2015-09-28T18:22:23.000Z</time>
      </trkpt>
      <trkpt lat="48.85185" lon="2.34332">
        <ele>41</ele>
        <time>2015-09-28T18:22:30.000Z</time>
      </trkpt>
      <trkpt lat="48.85165" lon="2.34322">
        <ele>45.200000762939</ele>
        <time>2015-09-28T18:22:36.000Z</time>
      </trkpt>
      <trkpt lat="48.85148" lon="2.34314">
        <ele>48.599998474121</ele>
        <time>2015-09-28T18:22:41.000Z</time>
      </trkpt>
      <trkpt lat="48.85129" lon="2.34306">
        <ele>51.400001525879</ele>
        <time>2015-09-28T18:22:45.000Z</time>
      </trkpt>
      <trkpt lat="48.85108" lon="2.34298">
        <ele>54.400001525879</ele>
        <time>2015-09-28T18:22:49.000Z</time>
      </trkpt>
      <trkpt lat="48.85089" lon="2.34289">
        <ele>56.599998474121</ele>
        <time>2015-09-28T18:22:52.000Z</time>
      </trkpt>
      <trkpt lat="48.8507" lon="2.34279">
        <ele>57.599998474121</ele>
        <time>2015-09-28T18:22:56.000Z</time>
      </trkpt>
      <trkpt lat="48.85065" lon="2.34274">
        <ele>57.599998474121</ele>
        <time>2015-09-28T18:22:57.000Z</time>
      </trkpt>
      <trkpt lat="48.85043" lon="2.34269">
        <ele>58.400001525879</ele>
        <time>2015-09-28T18:23:00.000Z</time>
      </trkpt>
      <trkpt lat="48.85031" lon="2.34264">
        <ele>59.599998474121</ele>
        <time>2015-09-28T18:23:02.000Z</time>
      </trkpt>
      <trkpt lat="48.85014" lon="2.34254">
        <ele>61.400001525879</ele>
        <time>2015-09-28T18:23:05.000Z</time>
      </trkpt>
      <trkpt lat="48.84992" lon="2.34242">
        <ele>64</ele>
        <time>2015-09-28T18:23:09.000Z</time>
      </trkpt>
      <trkpt lat="48.84969" lon="2.34229">
        <ele>66.400001525879</ele>
        <time>2015-09-28T18:23:13.000Z</time>
      </trkpt>
      <trkpt lat="48.84953" lon="2.3422">
        <ele>67.400001525879</ele>
        <time>2015-09-28T18:23:16.000Z</time>
      </trkpt>
      <trkpt lat="48.84932" lon="2.3421">
        <ele>67.599998474121</ele>
        <time>2015-09-28T18:23:20.000Z</time>
      </trkpt>
      <trkpt lat="48.8491" lon="2.342">
        <ele>68.599998474121</ele>
        <time>2015-09-28T18:23:24.000Z</time>
      </trkpt>
      <trkpt lat="48.84903" lon="2.34199">
        <ele>69</ele>
        <time>2015-09-28T18:23:25.000Z</time>
      </trkpt>
      <trkpt lat="48.84889" lon="2.34187">
        <ele>69.400001525879</ele>
        <time>2015-09-28T18:23:28.000Z</time>
      </trkpt>
      <trkpt lat="48.84873" lon="2.34171">
        <ele>69.599998474121</ele>
        <time>2015-09-28T18:23:32.000Z</time>
      </trkpt>
      <trkpt lat="48.84857" lon="2.34154">
        <ele>69.599998474121</ele>
        <time>2015-09-28T18:23:36.000Z</time>
      </trkpt>
      <trkpt lat="48.84847" lon="2.34148">
        <ele>69.599998474121</ele>
        <time>2015-09-28T18:23:38.000Z</time>
      </trkpt>
      <trkpt lat="48.84828" lon="2.34133">
        <ele>70.800003051758</ele>
        <time>2015-09-28T18:23:42.000Z</time>
      </trkpt>
      <trkpt lat="48.84813" lon="2.34116">
        <ele>72</ele>
        <time>2015-09-28T18:23:46.000Z</time>
      </trkpt>
      <trkpt lat="48.84805" lon="2.3411">
        <ele>72.800003051758</ele>
        <time>2015-09-28T18:23:48.000Z</time>
      </trkpt>
      <trkpt lat="48.8479" lon="2.34102">
        <ele>69.199996948242</ele>
        <time>2015-09-28T18:23:51.000Z</time>
      </trkpt>
      <trkpt lat="48.84772" lon="2.34092">
        <ele>62.799999237061</ele>
        <time>2015-09-28T18:23:55.000Z</time>
      </trkpt>
      <trkpt lat="48.84769" lon="2.34089">
        <ele>60.799999237061</ele>
        <time>2015-09-28T18:23:56.000Z</time>
      </trkpt>
      <trkpt lat="48.8476" lon="2.34084">
        <ele>56.599998474121</ele>
        <time>2015-09-28T18:23:59.000Z</time>
      </trkpt>
      <trkpt lat="48.84758" lon="2.34082">
        <ele>56</ele>
        <time>2015-09-28T18:24:01.000Z</time>
      </trkpt>
      <trkpt lat="48.84751" lon="2.34082">
        <ele>51.799999237061</ele>
        <time>2015-09-28T18:24:43.000Z</time>
      </trkpt>
      <trkpt lat="48.84753" lon="2.34071">
        <ele>54.200000762939</ele>
        <time>2015-09-28T18:25:24.000Z</time>
      </trkpt>
      <trkpt lat="48.84738" lon="2.34064">
        <ele>52.799999237061</ele>
        <time>2015-09-28T18:25:50.000Z</time>
      </trkpt>
      <trkpt lat="48.84719" lon="2.34059">
        <ele>52.599998474121</ele>
        <time>2015-09-28T18:26:00.000Z</time>
      </trkpt>
      <trkpt lat="48.847" lon="2.34055">
        <ele>52.599998474121</ele>
        <time>2015-09-28T18:26:07.000Z</time>
      </trkpt>
      <trkpt lat="48.84696" lon="2.34055">
        <ele>53</ele>
        <time>2015-09-28T18:26:08.000Z</time>
      </trkpt>
      <trkpt lat="48.84676" lon="2.34044">
        <ele>54</ele>
        <time>2015-09-28T18:26:21.000Z</time>
      </trkpt>
      <trkpt lat="48.84659" lon="2.34034">
        <ele>54.599998474121</ele>
        <time>2015-09-28T18:26:26.000Z</time>
      </trkpt>
      <trkpt lat="48.84641" lon="2.34022">
        <ele>54.599998474121</ele>
        <time>2015-09-28T18:26:30.000Z</time>
      </trkpt>
      <trkpt lat="48.84624" lon="2.34009">
        <ele>53.200000762939</ele>
        <time>2015-09-28T18:26:34.000Z</time>
      </trkpt>
      <trkpt lat="48.84602" lon="2.34">
        <ele>53</ele>
        <time>2015-09-28T18:26:38.000Z</time>
      </trkpt>
      <trkpt lat="48.84581" lon="2.3399">
        <ele>53.400001525879</ele>
        <time>2015-09-28T18:26:41.000Z</time>
      </trkpt>
      <trkpt lat="48.8456" lon="2.33982">
        <ele>53.799999237061</ele>
        <time>2015-09-28T18:26:44.000Z</time>
      </trkpt>
      <trkpt lat="48.8454" lon="2.33974">
        <ele>54.200000762939</ele>
        <time>2015-09-28T18:26:47.000Z</time>
      </trkpt>
      <trkpt lat="48.84521" lon="2.33964">
        <ele>55</ele>
        <time>2015-09-28T18:26:50.000Z</time>
      </trkpt>
      <trkpt lat="48.845" lon="2.33955">
        <ele>55.400001525879</ele>
        <time>2015-09-28T18:26:53.000Z</time>
      </trkpt>
      <trkpt lat="48.8448" lon="2.33945">
        <ele>56.200000762939</ele>
        <time>2015-09-28T18:26:56.000Z</time>
      </trkpt>
      <trkpt lat="48.84457" lon="2.33934">
        <ele>57.799999237061</ele>
        <time>2015-09-28T18:27:00.000Z</time>
      </trkpt>
      <trkpt lat="48.8445" lon="2.33932">
        <ele>57.200000762939</ele>
        <time>2015-09-28T18:27:01.000Z</time>
      </trkpt>
      <trkpt lat="48.84436" lon="2.33926">
        <ele>57.400001525879</ele>
        <time>2015-09-28T18:27:04.000Z</time>
      </trkpt>
      <trkpt lat="48.84416" lon="2.33916">
        <ele>58.599998474121</ele>
        <time>2015-09-28T18:27:09.000Z</time>
      </trkpt>
      <trkpt lat="48.84411" lon="2.33912">
        <ele>59.400001525879</ele>
        <time>2015-09-28T18:27:11.000Z</time>
      </trkpt>
      <trkpt lat="48.84405" lon="2.33908">
        <ele>60.400001525879</ele>
        <time>2015-09-28T18:27:13.000Z</time>
      </trkpt>
      <trkpt lat="48.84398" lon="2.33904">
        <ele>61.799999237061</ele>
        <time>2015-09-28T18:27:15.000Z</time>
      </trkpt>
      <trkpt lat="48.84388" lon="2.33899">
        <ele>64</ele>
        <time>2015-09-28T18:27:18.000Z</time>
      </trkpt>
      <trkpt lat="48.84383" lon="2.33897">
        <ele>66</ele>
        <time>2015-09-28T18:27:21.000Z</time>
      </trkpt>
      <trkpt lat="48.84366" lon="2.33891">
        <ele>73.599998474121</ele>
        <time>2015-09-28T18:27:28.000Z</time>
      </trkpt>
      <trkpt lat="48.84362" lon="2.33889">
        <ele>74.599998474121</ele>
        <time>2015-09-28T18:27:29.000Z</time>
      </trkpt>
      <trkpt lat="48.84345" lon="2.33876">
        <ele>79.199996948242</ele>
        <time>2015-09-28T18:27:34.000Z</time>
      </trkpt>
      <trkpt lat="48.84324" lon="2.33862">
        <ele>82.199996948242</ele>
        <time>2015-09-28T18:27:38.000Z</time>
      </trkpt>
      <trkpt lat="48.84306" lon="2.33851">
        <ele>84</ele>
        <time>2015-09-28T18:27:42.000Z</time>
      </trkpt>
      <trkpt lat="48.84286" lon="2.3384">
        <ele>85.400001525879</ele>
        <time>2015-09-28T18:27:47.000Z</time>
      </trkpt>
      <trkpt lat="48.84267" lon="2.33831">
        <ele>87.199996948242</ele>
        <time>2015-09-28T18:27:51.000Z</time>
      </trkpt>
      <trkpt lat="48.84245" lon="2.33819">
        <ele>88.800003051758</ele>
        <time>2015-09-28T18:27:55.000Z</time>
      </trkpt>
      <trkpt lat="48.84228" lon="2.3381">
        <ele>89.400001525879</ele>
        <time>2015-09-28T18:27:58.000Z</time>
      </trkpt>
      <trkpt lat="48.84208" lon="2.33798">
        <ele>90.800003051758</ele>
        <time>2015-09-28T18:28:02.000Z</time>
      </trkpt>
      <trkpt lat="48.84187" lon="2.3379">
        <ele>93</ele>
        <time>2015-09-28T18:28:06.000Z</time>
      </trkpt>
      <trkpt lat="48.84168" lon="2.33777">
        <ele>93.800003051758</ele>
        <time>2015-09-28T18:28:11.000Z</time>
      </trkpt>
      <trkpt lat="48.84149" lon="2.33765">
        <ele>94.800003051758</ele>
        <time>2015-09-28T18:28:15.000Z</time>
      </trkpt>
      <trkpt lat="48.84132" lon="2.33751">
        <ele>96</ele>
        <time>2015-09-28T18:28:19.000Z</time>
      </trkpt>
      <trkpt lat="48.84113" lon="2.33739">
        <ele>95.400001525879</ele>
        <time>2015-09-28T18:28:23.000Z</time>
      </trkpt>
      <trkpt lat="48.84088" lon="2.33731">
        <ele>91</ele>
        <time>2015-09-28T18:28:27.000Z</time>
      </trkpt>
      <trkpt lat="48.8407" lon="2.33723">
        <ele>88.599998474121</ele>
        <time>2015-09-28T18:28:31.000Z</time>
      </trkpt>
      <trkpt lat="48.8405" lon="2.33713">
        <ele>93.599998474121</ele>
        <time>2015-09-28T18:28:37.000Z</time>
      </trkpt>
      <trkpt lat="48.84031" lon="2.33697">
        <ele>99.800003051758</ele>
        <time>2015-09-28T18:28:42.000Z</time>
      </trkpt>
      <trkpt lat="48.84013" lon="2.33697">
        <ele>103.59999847412</ele>
        <time>2015-09-28T18:28:46.000Z</time>
      </trkpt>
      <trkpt lat="48.83999" lon="2.33697">
        <ele>106.19999694824</ele>
        <time>2015-09-28T18:28:49.000Z</time>
      </trkpt>
      <trkpt lat="48.8398" lon="2.33694">
        <ele>110.19999694824</ele>
        <time>2015-09-28T18:28:53.000Z</time>
      </trkpt>
      <trkpt lat="48.83964" lon="2.3369">
        <ele>114.80000305176</ele>
        <time>2015-09-28T18:28:57.000Z</time>
      </trkpt>
      <trkpt lat="48.83961" lon="2.33688">
        <ele>116.19999694824</ele>
        <time>2015-09-28T18:28:58.000Z</time>
      </trkpt>
      <trkpt lat="48.83951" lon="2.33687">
        <ele>119.40000152588</ele>
        <time>2015-09-28T18:29:01.000Z</time>
      </trkpt>
      <trkpt lat="48.8394" lon="2.33694">
        <ele>123.59999847412</ele>
        <time>2015-09-28T18:29:06.000Z</time>
      </trkpt>
      <trkpt lat="48.83939" lon="2.33693">
        <ele>124</ele>
        <time>2015-09-28T18:29:07.000Z</time>
      </trkpt>
      <trkpt lat="48.83966" lon="2.33669">
        <ele>119.40000152588</ele>
        <time>2015-09-28T18:29:24.000Z</time>
      </trkpt>
      <trkpt lat="48.83966" lon="2.33671">
        <ele>109.19999694824</ele>
        <time>2015-09-28T18:29:38.000Z</time>
      </trkpt>
      <trkpt lat="48.83946" lon="2.33667">
        <ele>106.59999847412</ele>
        <time>2015-09-28T18:29:45.000Z</time>
      </trkpt>
      <trkpt lat="48.83922" lon="2.33666">
        <ele>102.80000305176</ele>
        <time>2015-09-28T18:29:49.000Z</time>
      </trkpt>
      <trkpt lat="48.83918" lon="2.33666">
        <ele>102.40000152588</ele>
        <time>2015-09-28T18:29:50.000Z</time>
      </trkpt>
      <trkpt lat="48.83899" lon="2.33665">
        <ele>100.19999694824</ele>
        <time>2015-09-28T18:29:53.000Z</time>
      </trkpt>
      <trkpt lat="48.83881" lon="2.33662">
        <ele>97.800003051758</ele>
        <time>2015-09-28T18:29:56.000Z</time>
      </trkpt>
      <trkpt lat="48.8386" lon="2.33651">
        <ele>96.199996948242</ele>
        <time>2015-09-28T18:30:00.000Z</time>
      </trkpt>
      <trkpt lat="48.83849" lon="2.33632">
        <ele>94.599998474121</ele>
        <time>2015-09-28T18:30:04.000Z</time>
      </trkpt>
      <trkpt lat="48.83829" lon="2.33611">
        <ele>93.599998474121</ele>
        <time>2015-09-28T18:30:08.000Z</time>
      </trkpt>
      <trkpt lat="48.8381" lon="2.33594">
        <ele>93.199996948242</ele>
        <time>2015-09-28T18:30:11.000Z</time>
      </trkpt>
      <trkpt lat="48.83789" lon="2.33576">
        <ele>92.599998474121</ele>
        <time>2015-09-28T18:30:14.000Z</time>
      </trkpt>
      <trkpt lat="48.8377" lon="2.3356">
        <ele>92.400001525879</ele>
        <time>2015-09-28T18:30:17.000Z</time>
      </trkpt>
      <trkpt lat="48.8375" lon="2.33543">
        <ele>92</ele>
        <time>2015-09-28T18:30:20.000Z</time>
      </trkpt>
      <trkpt lat="48.83733" lon="2.33524">
        <ele>91.599998474121</ele>
        <time>2015-09-28T18:30:23.000Z</time>
      </trkpt>
      <trkpt lat="48.83716" lon="2.33504">
        <ele>91.400001525879</ele>
        <time>2015-09-28T18:30:26.000Z</time>
      </trkpt>
      <trkpt lat="48.83699" lon="2.33489">
        <ele>91.199996948242</ele>
        <time>2015-09-28T18:30:29.000Z</time>
      </trkpt>
      <trkpt lat="48.83683" lon="2.33474">
        <ele>91.199996948242</ele>
        <time>2015-09-28T18:30:32.000Z</time>
      </trkpt>
      <trkpt lat="48.83666" lon="2.33459">
        <ele>91</ele>
        <time>2015-09-28T18:30:35.000Z</time>
      </trkpt>
      <trkpt lat="48.83648" lon="2.33444">
        <ele>90.800003051758</ele>
        <time>2015-09-28T18:30:38.000Z</time>
      </trkpt>
      <trkpt lat="48.83633" lon="2.33428">
        <ele>90.599998474121</ele>
        <time>2015-09-28T18:30:41.000Z</time>
      </trkpt>
      <trkpt lat="48.83617" lon="2.33412">
        <ele>91.400001525879</ele>
        <time>2015-09-28T18:30:44.000Z</time>
      </trkpt>
      <trkpt lat="48.836" lon="2.33399">
        <ele>91.599998474121</ele>
        <time>2015-09-28T18:30:47.000Z</time>
      </trkpt>
      <trkpt lat="48.83582" lon="2.33383">
        <ele>91.599998474121</ele>
        <time>2015-09-28T18:30:51.000Z</time>
      </trkpt>
      <trkpt lat="48.83563" lon="2.33369">
        <ele>94</ele>
        <time>2015-09-28T18:30:55.000Z</time>
      </trkpt>
      <trkpt lat="48.83544" lon="2.33352">
        <ele>96.199996948242</ele>
        <time>2015-09-28T18:31:00.000Z</time>
      </trkpt>
      <trkpt lat="48.83528" lon="2.3334">
        <ele>99.599998474121</ele>
        <time>2015-09-28T18:31:05.000Z</time>
      </trkpt>
      <trkpt lat="48.83514" lon="2.33332">
        <ele>102.59999847412</ele>
        <time>2015-09-28T18:31:10.000Z</time>
      </trkpt>
      <trkpt lat="48.83505" lon="2.33325">
        <ele>104.40000152588</ele>
        <time>2015-09-28T18:31:14.000Z</time>
      </trkpt>
      <trkpt lat="48.83484" lon="2.33313">
        <ele>106.40000152588</ele>
        <time>2015-09-28T18:31:20.000Z</time>
      </trkpt>
      <trkpt lat="48.83475" lon="2.3331">
        <ele>106.59999847412</ele>
        <time>2015-09-28T18:31:24.000Z</time>
      </trkpt>
      <trkpt lat="48.83473" lon="2.33314">
        <ele>107.80000305176</ele>
        <time>2015-09-28T18:31:28.000Z</time>
      </trkpt>
      <trkpt lat="48.8347" lon="2.33316">
        <ele>108.59999847412</ele>
        <time>2015-09-28T18:31:29.000Z</time>
      </trkpt>
      <trkpt lat="48.83466" lon="2.33317">
        <ele>109</ele>
        <time>2015-09-28T18:31:31.000Z</time>
      </trkpt>
      <trkpt lat="48.83464" lon="2.33292">
        <ele>88.599998474121</ele>
        <time>2015-09-28T18:31:58.000Z</time>
      </trkpt>
      <trkpt lat="48.83467" lon="2.33294">
        <ele>69.800003051758</ele>
        <time>2015-09-28T18:33:20.000Z</time>
      </trkpt>
      <trkpt lat="48.83462" lon="2.33293">
        <ele>67.800003051758</ele>
        <time>2015-09-28T18:33:44.000Z</time>
      </trkpt>
      <trkpt lat="48.83463" lon="2.33291">
        <ele>61.400001525879</ele>
        <time>2015-09-28T18:36:29.000Z</time>
      </trkpt>
      <trkpt lat="48.83463" lon="2.33292">
        <ele>55.799999237061</ele>
        <time>2015-09-28T18:38:41.000Z</time>
      </trkpt>
      <trkpt lat="48.83479" lon="2.33296">
        <ele>55.799999237061</ele>
        <time>2015-09-28T18:39:26.000Z</time>
      </trkpt>
      <trkpt lat="48.83497" lon="2.33312">
        <ele>56.400001525879</ele>
        <time>2015-09-28T18:39:34.000Z</time>
      </trkpt>
      <trkpt lat="48.83515" lon="2.33326">
        <ele>58</ele>
        <time>2015-09-28T18:39:40.000Z</time>
      </trkpt>
      <trkpt lat="48.83534" lon="2.3334">
        <ele>59.200000762939</ele>
        <time>2015-09-28T18:39:45.000Z</time>
      </trkpt>
      <trkpt lat="48.83539" lon="2.33342">
        <ele>59.400001525879</ele>
        <time>2015-09-28T18:39:46.000Z</time>
      </trkpt>
      <trkpt lat="48.83557" lon="2.33356">
        <ele>60.200000762939</ele>
        <time>2015-09-28T18:39:50.000Z</time>
      </trkpt>
      <trkpt lat="48.83574" lon="2.33369">
        <ele>61</ele>
        <time>2015-09-28T18:39:54.000Z</time>
      </trkpt>
      <trkpt lat="48.83593" lon="2.33386">
        <ele>61.400001525879</ele>
        <time>2015-09-28T18:39:58.000Z</time>
      </trkpt>
      <trkpt lat="48.83611" lon="2.33402">
        <ele>62.400001525879</ele>
        <time>2015-09-28T18:40:02.000Z</time>
      </trkpt>
      <trkpt lat="48.83629" lon="2.33417">
        <ele>62.400001525879</ele>
        <time>2015-09-28T18:40:06.000Z</time>
      </trkpt>
      <trkpt lat="48.83648" lon="2.33437">
        <ele>63.400001525879</ele>
        <time>2015-09-28T18:40:10.000Z</time>
      </trkpt>
      <trkpt lat="48.83654" lon="2.33442">
        <ele>63</ele>
        <time>2015-09-28T18:40:11.000Z</time>
      </trkpt>
      <trkpt lat="48.83669" lon="2.33458">
        <ele>63.400001525879</ele>
        <time>2015-09-28T18:40:14.000Z</time>
      </trkpt>
      <trkpt lat="48.83684" lon="2.33475">
        <ele>63.200000762939</ele>
        <time>2015-09-28T18:40:17.000Z</time>
      </trkpt>
      <trkpt lat="48.837" lon="2.33492">
        <ele>63.599998474121</ele>
        <time>2015-09-28T18:40:20.000Z</time>
      </trkpt>
      <trkpt lat="48.83716" lon="2.3351">
        <ele>63.400001525879</ele>
        <time>2015-09-28T18:40:23.000Z</time>
      </trkpt>
      <trkpt lat="48.83734" lon="2.33526">
        <ele>61.200000762939</ele>
        <time>2015-09-28T18:40:26.000Z</time>
      </trkpt>
      <trkpt lat="48.83751" lon="2.3354">
        <ele>59.400001525879</ele>
        <time>2015-09-28T18:40:29.000Z</time>
      </trkpt>
      <trkpt lat="48.83766" lon="2.33555">
        <ele>58.799999237061</ele>
        <time>2015-09-28T18:40:32.000Z</time>
      </trkpt>
      <trkpt lat="48.83785" lon="2.33573">
        <ele>58.400001525879</ele>
        <time>2015-09-28T18:40:36.000Z</time>
      </trkpt>
      <trkpt lat="48.83803" lon="2.33592">
        <ele>58.599998474121</ele>
        <time>2015-09-28T18:40:40.000Z</time>
      </trkpt>
      <trkpt lat="48.83824" lon="2.33609">
        <ele>58.799999237061</ele>
        <time>2015-09-28T18:40:44.000Z</time>
      </trkpt>
      <trkpt lat="48.83837" lon="2.33622">
        <ele>55</ele>
        <time>2015-09-28T18:40:46.000Z</time>
      </trkpt>
      <trkpt lat="48.83852" lon="2.33639">
        <ele>53.599998474121</ele>
        <time>2015-09-28T18:40:49.000Z</time>
      </trkpt>
      <trkpt lat="48.83865" lon="2.33653">
        <ele>53.599998474121</ele>
        <time>2015-09-28T18:40:52.000Z</time>
      </trkpt>
      <trkpt lat="48.83885" lon="2.33664">
        <ele>52.400001525879</ele>
        <time>2015-09-28T18:40:56.000Z</time>
      </trkpt>
      <trkpt lat="48.83895" lon="2.33667">
        <ele>52.599998474121</ele>
        <time>2015-09-28T18:40:58.000Z</time>
      </trkpt>
      <trkpt lat="48.83914" lon="2.33671">
        <ele>52.400001525879</ele>
        <time>2015-09-28T18:41:02.000Z</time>
      </trkpt>
      <trkpt lat="48.8392" lon="2.33675">
        <ele>52.799999237061</ele>
        <time>2015-09-28T18:41:04.000Z</time>
      </trkpt>
      <trkpt lat="48.83925" lon="2.33682">
        <ele>53.200000762939</ele>
        <time>2015-09-28T18:41:08.000Z</time>
      </trkpt>
      <trkpt lat="48.83926" lon="2.33682">
        <ele>53.400001525879</ele>
        <time>2015-09-28T18:41:09.000Z</time>
      </trkpt>
      <trkpt lat="48.83925" lon="2.33673">
        <ele>57.200000762939</ele>
        <time>2015-09-28T18:41:59.000Z</time>
      </trkpt>
      <trkpt lat="48.83946" lon="2.33666">
        <ele>59</ele>
        <time>2015-09-28T18:42:18.000Z</time>
      </trkpt>
      <trkpt lat="48.83967" lon="2.33663">
        <ele>59.200000762939</ele>
        <time>2015-09-28T18:42:23.000Z</time>
      </trkpt>
      <trkpt lat="48.83986" lon="2.3367">
        <ele>56.599998474121</ele>
        <time>2015-09-28T18:42:27.000Z</time>
      </trkpt>
      <trkpt lat="48.84004" lon="2.33678">
        <ele>55</ele>
        <time>2015-09-28T18:42:31.000Z</time>
      </trkpt>
      <trkpt lat="48.84016" lon="2.33685">
        <ele>52.799999237061</ele>
        <time>2015-09-28T18:42:35.000Z</time>
      </trkpt>
      <trkpt lat="48.84033" lon="2.33695">
        <ele>50.400001525879</ele>
        <time>2015-09-28T18:42:40.000Z</time>
      </trkpt>
      <trkpt lat="48.84049" lon="2.33708">
        <ele>48.200000762939</ele>
        <time>2015-09-28T18:42:45.000Z</time>
      </trkpt>
      <trkpt lat="48.84066" lon="2.3372">
        <ele>46</ele>
        <time>2015-09-28T18:42:50.000Z</time>
      </trkpt>
      <trkpt lat="48.84077" lon="2.33727">
        <ele>44.200000762939</ele>
        <time>2015-09-28T18:42:53.000Z</time>
      </trkpt>
      <trkpt lat="48.84096" lon="2.33738">
        <ele>41.200000762939</ele>
        <time>2015-09-28T18:42:58.000Z</time>
      </trkpt>
      <trkpt lat="48.84114" lon="2.33749">
        <ele>40</ele>
        <time>2015-09-28T18:43:02.000Z</time>
      </trkpt>
      <trkpt lat="48.84134" lon="2.3376">
        <ele>38.799999237061</ele>
        <time>2015-09-28T18:43:06.000Z</time>
      </trkpt>
      <trkpt lat="48.84152" lon="2.33771">
        <ele>38.400001525879</ele>
        <time>2015-09-28T18:43:10.000Z</time>
      </trkpt>
      <trkpt lat="48.84157" lon="2.33774">
        <ele>38.400001525879</ele>
        <time>2015-09-28T18:43:11.000Z</time>
      </trkpt>
      <trkpt lat="48.84177" lon="2.33784">
        <ele>38.200000762939</ele>
        <time>2015-09-28T18:43:15.000Z</time>
      </trkpt>
      <trkpt lat="48.84195" lon="2.33792">
        <ele>38.799999237061</ele>
        <time>2015-09-28T18:43:19.000Z</time>
      </trkpt>
      <trkpt lat="48.84214" lon="2.338">
        <ele>39.799999237061</ele>
        <time>2015-09-28T18:43:23.000Z</time>
      </trkpt>
      <trkpt lat="48.84235" lon="2.33807">
        <ele>40</ele>
        <time>2015-09-28T18:43:27.000Z</time>
      </trkpt>
      <trkpt lat="48.84256" lon="2.33816">
        <ele>40.599998474121</ele>
        <time>2015-09-28T18:43:31.000Z</time>
      </trkpt>
      <trkpt lat="48.84279" lon="2.33826">
        <ele>41.599998474121</ele>
        <time>2015-09-28T18:43:35.000Z</time>
      </trkpt>
      <trkpt lat="48.84301" lon="2.33837">
        <ele>42.400001525879</ele>
        <time>2015-09-28T18:43:39.000Z</time>
      </trkpt>
      <trkpt lat="48.84319" lon="2.33845">
        <ele>43</ele>
        <time>2015-09-28T18:43:42.000Z</time>
      </trkpt>
      <trkpt lat="48.84337" lon="2.33852">
        <ele>43.799999237061</ele>
        <time>2015-09-28T18:43:45.000Z</time>
      </trkpt>
      <trkpt lat="48.84356" lon="2.33862">
        <ele>44</ele>
        <time>2015-09-28T18:43:48.000Z</time>
      </trkpt>
      <trkpt lat="48.84378" lon="2.33874">
        <ele>43</ele>
        <time>2015-09-28T18:43:51.000Z</time>
      </trkpt>
      <trkpt lat="48.84399" lon="2.33886">
        <ele>42.400001525879</ele>
        <time>2015-09-28T18:43:54.000Z</time>
      </trkpt>
      <trkpt lat="48.84418" lon="2.33898">
        <ele>42</ele>
        <time>2015-09-28T18:43:57.000Z</time>
      </trkpt>
      <trkpt lat="48.84438" lon="2.33909">
        <ele>42.400001525879</ele>
        <time>2015-09-28T18:44:00.000Z</time>
      </trkpt>
      <trkpt lat="48.84458" lon="2.3392">
        <ele>43.400001525879</ele>
        <time>2015-09-28T18:44:03.000Z</time>
      </trkpt>
      <trkpt lat="48.84476" lon="2.33929">
        <ele>44.400001525879</ele>
        <time>2015-09-28T18:44:06.000Z</time>
      </trkpt>
      <trkpt lat="48.84494" lon="2.33939">
        <ele>45.200000762939</ele>
        <time>2015-09-28T18:44:09.000Z</time>
      </trkpt>
      <trkpt lat="48.84512" lon="2.33949">
        <ele>46.200000762939</ele>
        <time>2015-09-28T18:44:12.000Z</time>
      </trkpt>
      <trkpt lat="48.84531" lon="2.33959">
        <ele>47</ele>
        <time>2015-09-28T18:44:15.000Z</time>
      </trkpt>
      <trkpt lat="48.84549" lon="2.33968">
        <ele>47.799999237061</ele>
        <time>2015-09-28T18:44:18.000Z</time>
      </trkpt>
      <trkpt lat="48.84566" lon="2.33979">
        <ele>47.799999237061</ele>
        <time>2015-09-28T18:44:21.000Z</time>
      </trkpt>
      <trkpt lat="48.84586" lon="2.33991">
        <ele>48.200000762939</ele>
        <time>2015-09-28T18:44:25.000Z</time>
      </trkpt>
      <trkpt lat="48.84604" lon="2.34002">
        <ele>48</ele>
        <time>2015-09-28T18:44:29.000Z</time>
      </trkpt>
      <trkpt lat="48.84624" lon="2.34017">
        <ele>47.200000762939</ele>
        <time>2015-09-28T18:44:33.000Z</time>
      </trkpt>
      <trkpt lat="48.84641" lon="2.34031">
        <ele>47.400001525879</ele>
        <time>2015-09-28T18:44:36.000Z</time>
      </trkpt>
      <trkpt lat="48.84658" lon="2.34039">
        <ele>45.799999237061</ele>
        <time>2015-09-28T18:44:39.000Z</time>
      </trkpt>
      <trkpt lat="48.84677" lon="2.34053">
        <ele>44.400001525879</ele>
        <time>2015-09-28T18:44:43.000Z</time>
      </trkpt>
      <trkpt lat="48.84688" lon="2.34059">
        <ele>43.400001525879</ele>
        <time>2015-09-28T18:44:46.000Z</time>
      </trkpt>
      <trkpt lat="48.84695" lon="2.34063">
        <ele>42.599998474121</ele>
        <time>2015-09-28T18:44:48.000Z</time>
      </trkpt>
      <trkpt lat="48.84702" lon="2.34069">
        <ele>41</ele>
        <time>2015-09-28T18:44:50.000Z</time>
      </trkpt>
      <trkpt lat="48.8472" lon="2.34083">
        <ele>38.799999237061</ele>
        <time>2015-09-28T18:44:55.000Z</time>
      </trkpt>
      <trkpt lat="48.84736" lon="2.34096">
        <ele>36</ele>
        <time>2015-09-28T18:45:00.000Z</time>
      </trkpt>
      <trkpt lat="48.84745" lon="2.34102">
        <ele>34</ele>
        <time>2015-09-28T18:45:05.000Z</time>
      </trkpt>
      <trkpt lat="48.84743" lon="2.34083">
        <ele>41.599998474121</ele>
        <time>2015-09-28T18:47:16.000Z</time>
      </trkpt>
      <trkpt lat="48.84762" lon="2.34089">
        <ele>43.200000762939</ele>
        <time>2015-09-28T18:47:34.000Z</time>
      </trkpt>
      <trkpt lat="48.8478" lon="2.341">
        <ele>43.599998474121</ele>
        <time>2015-09-28T18:47:38.000Z</time>
      </trkpt>
      <trkpt lat="48.848" lon="2.34113">
        <ele>44.400001525879</ele>
        <time>2015-09-28T18:47:42.000Z</time>
      </trkpt>
      <trkpt lat="48.84818" lon="2.34122">
        <ele>44.799999237061</ele>
        <time>2015-09-28T18:47:45.000Z</time>
      </trkpt>
      <trkpt lat="48.84837" lon="2.34132">
        <ele>45.200000762939</ele>
        <time>2015-09-28T18:47:48.000Z</time>
      </trkpt>
      <trkpt lat="48.84855" lon="2.34141">
        <ele>45.799999237061</ele>
        <time>2015-09-28T18:47:51.000Z</time>
      </trkpt>
      <trkpt lat="48.84875" lon="2.34155">
        <ele>45.599998474121</ele>
        <time>2015-09-28T18:47:54.000Z</time>
      </trkpt>
      <trkpt lat="48.84891" lon="2.34169">
        <ele>45.400001525879</ele>
        <time>2015-09-28T18:47:57.000Z</time>
      </trkpt>
      <trkpt lat="48.84908" lon="2.34184">
        <ele>45.400001525879</ele>
        <time>2015-09-28T18:48:00.000Z</time>
      </trkpt>
      <trkpt lat="48.84927" lon="2.34198">
        <ele>45.400001525879</ele>
        <time>2015-09-28T18:48:03.000Z</time>
      </trkpt>
      <trkpt lat="48.84945" lon="2.3421">
        <ele>45.599998474121</ele>
        <time>2015-09-28T18:48:06.000Z</time>
      </trkpt>
      <trkpt lat="48.84964" lon="2.3422">
        <ele>45.599998474121</ele>
        <time>2015-09-28T18:48:09.000Z</time>
      </trkpt>
      <trkpt lat="48.84982" lon="2.34231">
        <ele>45.400001525879</ele>
        <time>2015-09-28T18:48:12.000Z</time>
      </trkpt>
      <trkpt lat="48.85001" lon="2.34241">
        <ele>45</ele>
        <time>2015-09-28T18:48:15.000Z</time>
      </trkpt>
      <trkpt lat="48.85024" lon="2.34257">
        <ele>42.400001525879</ele>
        <time>2015-09-28T18:48:18.000Z</time>
      </trkpt>
      <trkpt lat="48.85047" lon="2.34272">
        <ele>40</ele>
        <time>2015-09-28T18:48:22.000Z</time>
      </trkpt>
      <trkpt lat="48.85057" lon="2.34279">
        <ele>38.599998474121</ele>
        <time>2015-09-28T18:48:24.000Z</time>
      </trkpt>
      <trkpt lat="48.85074" lon="2.34292">
        <ele>36.400001525879</ele>
        <time>2015-09-28T18:48:28.000Z</time>
      </trkpt>
      <trkpt lat="48.85093" lon="2.34303">
        <ele>33.799999237061</ele>
        <time>2015-09-28T18:48:32.000Z</time>
      </trkpt>
      <trkpt lat="48.85117" lon="2.34312">
        <ele>29.799999237061</ele>
        <time>2015-09-28T18:48:35.000Z</time>
      </trkpt>
      <trkpt lat="48.85129" lon="2.34318">
        <ele>27.799999237061</ele>
        <time>2015-09-28T18:48:37.000Z</time>
      </trkpt>
      <trkpt lat="48.85145" lon="2.34324">
        <ele>24.799999237061</ele>
        <time>2015-09-28T18:48:41.000Z</time>
      </trkpt>
      <trkpt lat="48.85156" lon="2.34328">
        <ele>23.799999237061</ele>
        <time>2015-09-28T18:48:44.000Z</time>
      </trkpt>
      <trkpt lat="48.85175" lon="2.34334">
        <ele>20.799999237061</ele>
        <time>2015-09-28T18:48:50.000Z</time>
      </trkpt>
      <trkpt lat="48.85189" lon="2.34341">
        <ele>21.200000762939</ele>
        <time>2015-09-28T18:48:55.000Z</time>
      </trkpt>
      <trkpt lat="48.85199" lon="2.34347">
        <ele>21.60000038147</ele>
        <time>2015-09-28T18:48:58.000Z</time>
      </trkpt>
      <trkpt lat="48.85215" lon="2.34351">
        <ele>22.799999237061</ele>
        <time>2015-09-28T18:49:04.000Z</time>
      </trkpt>
      <trkpt lat="48.85235" lon="2.34355">
        <ele>24</ele>
        <time>2015-09-28T18:49:10.000Z</time>
      </trkpt>
      <trkpt lat="48.85256" lon="2.34358">
        <ele>25.60000038147</ele>
        <time>2015-09-28T18:49:16.000Z</time>
      </trkpt>
      <trkpt lat="48.85274" lon="2.34363">
        <ele>27</ele>
        <time>2015-09-28T18:49:22.000Z</time>
      </trkpt>
      <trkpt lat="48.85292" lon="2.34368">
        <ele>27.39999961853</ele>
        <time>2015-09-28T18:49:28.000Z</time>
      </trkpt>
      <trkpt lat="48.85315" lon="2.34373">
        <ele>24</ele>
        <time>2015-09-28T18:49:36.000Z</time>
      </trkpt>
      <trkpt lat="48.85336" lon="2.34386">
        <ele>25.60000038147</ele>
        <time>2015-09-28T18:49:45.000Z</time>
      </trkpt>
      <trkpt lat="48.85352" lon="2.34404">
        <ele>31.39999961853</ele>
        <time>2015-09-28T18:49:51.000Z</time>
      </trkpt>
      <trkpt lat="48.85368" lon="2.34425">
        <ele>31.60000038147</ele>
        <time>2015-09-28T18:50:00.000Z</time>
      </trkpt>
      <trkpt lat="48.85388" lon="2.3444">
        <ele>32</ele>
        <time>2015-09-28T18:50:06.000Z</time>
      </trkpt>
      <trkpt lat="48.85404" lon="2.34454">
        <ele>33.799999237061</ele>
        <time>2015-09-28T18:50:10.000Z</time>
      </trkpt>
      <trkpt lat="48.85422" lon="2.34473">
        <ele>34.200000762939</ele>
        <time>2015-09-28T18:50:15.000Z</time>
      </trkpt>
      <trkpt lat="48.85437" lon="2.34491">
        <ele>30</ele>
        <time>2015-09-28T18:50:20.000Z</time>
      </trkpt>
      <trkpt lat="48.85455" lon="2.34506">
        <ele>28.799999237061</ele>
        <time>2015-09-28T18:50:25.000Z</time>
      </trkpt>
      <trkpt lat="48.85474" lon="2.34521">
        <ele>27.39999961853</ele>
        <time>2015-09-28T18:50:30.000Z</time>
      </trkpt>
      <trkpt lat="48.85491" lon="2.34535">
        <ele>28.200000762939</ele>
        <time>2015-09-28T18:50:34.000Z</time>
      </trkpt>
      <trkpt lat="48.85507" lon="2.34548">
        <ele>29.60000038147</ele>
        <time>2015-09-28T18:50:38.000Z</time>
      </trkpt>
      <trkpt lat="48.85525" lon="2.34567">
        <ele>31.60000038147</ele>
        <time>2015-09-28T18:50:43.000Z</time>
      </trkpt>
      <trkpt lat="48.85541" lon="2.34582">
        <ele>31</ele>
        <time>2015-09-28T18:50:46.000Z</time>
      </trkpt>
      <trkpt lat="48.85559" lon="2.34598">
        <ele>30.799999237061</ele>
        <time>2015-09-28T18:50:51.000Z</time>
      </trkpt>
      <trkpt lat="48.85575" lon="2.3461">
        <ele>32.200000762939</ele>
        <time>2015-09-28T18:50:56.000Z</time>
      </trkpt>
      <trkpt lat="48.85584" lon="2.34615">
        <ele>33.599998474121</ele>
        <time>2015-09-28T18:50:59.000Z</time>
      </trkpt>
      <trkpt lat="48.85595" lon="2.34618">
        <ele>34.599998474121</ele>
        <time>2015-09-28T18:51:03.000Z</time>
      </trkpt>
      <trkpt lat="48.85615" lon="2.34626">
        <ele>34</ele>
        <time>2015-09-28T18:51:11.000Z</time>
      </trkpt>
      <trkpt lat="48.85623" lon="2.34639">
        <ele>35.200000762939</ele>
        <time>2015-09-28T18:51:17.000Z</time>
      </trkpt>
      <trkpt lat="48.85625" lon="2.34654">
        <ele>36.400001525879</ele>
        <time>2015-09-28T18:51:22.000Z</time>
      </trkpt>
      <trkpt lat="48.85642" lon="2.34667">
        <ele>37.200000762939</ele>
        <time>2015-09-28T18:51:35.000Z</time>
      </trkpt>
      <trkpt lat="48.8566" lon="2.34681">
        <ele>35.400001525879</ele>
        <time>2015-09-28T18:51:41.000Z</time>
      </trkpt>
      <trkpt lat="48.85677" lon="2.34694">
        <ele>33</ele>
        <time>2015-09-28T18:51:46.000Z</time>
      </trkpt>
      <trkpt lat="48.85695" lon="2.34709">
        <ele>30.200000762939</ele>
        <time>2015-09-28T18:51:52.000Z</time>
      </trkpt>
      <trkpt lat="48.85713" lon="2.34722">
        <ele>26.799999237061</ele>
        <time>2015-09-28T18:51:59.000Z</time>
      </trkpt>
      <trkpt lat="48.85718" lon="2.34733">
        <ele>24.799999237061</ele>
        <time>2015-09-28T18:52:07.000Z</time>
      </trkpt>
      <trkpt lat="48.85723" lon="2.34751">
        <ele>23.200000762939</ele>
        <time>2015-09-28T18:52:54.000Z</time>
      </trkpt>
      <trkpt lat="48.85739" lon="2.34769">
        <ele>21.799999237061</ele>
        <time>2015-09-28T18:53:04.000Z</time>
      </trkpt>
      <trkpt lat="48.8574" lon="2.34771">
        <ele>21.39999961853</ele>
        <time>2015-09-28T18:53:05.000Z</time>
      </trkpt>
      <trkpt lat="48.85743" lon="2.34776">
        <ele>21</ele>
        <time>2015-09-28T18:53:08.000Z</time>
      </trkpt>
      <trkpt lat="48.85761" lon="2.34782">
        <ele>19.39999961853</ele>
        <time>2015-09-28T18:53:19.000Z</time>
      </trkpt>
      <trkpt lat="48.85763" lon="2.34784">
        <ele>19.39999961853</ele>
        <time>2015-09-28T18:53:21.000Z</time>
      </trkpt>
      <trkpt lat="48.85776" lon="2.3479">
        <ele>20.799999237061</ele>
        <time>2015-09-28T18:54:15.000Z</time>
      </trkpt>
      <trkpt lat="48.85778" lon="2.34791">
        <ele>20.799999237061</ele>
        <time>2015-09-28T18:54:17.000Z</time>
      </trkpt>
      <trkpt lat="48.85783" lon="2.3479">
        <ele>22.799999237061</ele>
        <time>2015-09-28T18:54:43.000Z</time>
      </trkpt>
      <trkpt lat="48.85796" lon="2.34798">
        <ele>23.200000762939</ele>
        <time>2015-09-28T18:54:47.000Z</time>
      </trkpt>
      <trkpt lat="48.85812" lon="2.34809">
        <ele>24</ele>
        <time>2015-09-28T18:54:52.000Z</time>
      </trkpt>
      <trkpt lat="48.8583" lon="2.34818">
        <ele>25.799999237061</ele>
        <time>2015-09-28T18:54:59.000Z</time>
      </trkpt>
      <trkpt lat="48.85836" lon="2.34821">
        <ele>26</ele>
        <time>2015-09-28T18:55:05.000Z</time>
      </trkpt>
      <trkpt lat="48.85855" lon="2.34828">
        <ele>24.60000038147</ele>
        <time>2015-09-28T18:55:17.000Z</time>
      </trkpt>
      <trkpt lat="48.85873" lon="2.34837">
        <ele>24.799999237061</ele>
        <time>2015-09-28T18:55:22.000Z</time>
      </trkpt>
      <trkpt lat="48.8589" lon="2.34848">
        <ele>25</ele>
        <time>2015-09-28T18:55:28.000Z</time>
      </trkpt>
      <trkpt lat="48.85907" lon="2.34859">
        <ele>25.60000038147</ele>
        <time>2015-09-28T18:55:34.000Z</time>
      </trkpt>
      <trkpt lat="48.85926" lon="2.3487">
        <ele>26.200000762939</ele>
        <time>2015-09-28T18:55:40.000Z</time>
      </trkpt>
      <trkpt lat="48.85945" lon="2.3488">
        <ele>25.60000038147</ele>
        <time>2015-09-28T18:55:47.000Z</time>
      </trkpt>
      <trkpt lat="48.85963" lon="2.34891">
        <ele>24.39999961853</ele>
        <time>2015-09-28T18:55:54.000Z</time>
      </trkpt>
      <trkpt lat="48.8598" lon="2.34901">
        <ele>22</ele>
        <time>2015-09-28T18:56:00.000Z</time>
      </trkpt>
      <trkpt lat="48.85998" lon="2.34912">
        <ele>20.39999961853</ele>
        <time>2015-09-28T18:56:06.000Z</time>
      </trkpt>
      <trkpt lat="48.86014" lon="2.34922">
        <ele>20.60000038147</ele>
        <time>2015-09-28T18:56:09.000Z</time>
      </trkpt>
      <trkpt lat="48.86033" lon="2.3493">
        <ele>20.799999237061</ele>
        <time>2015-09-28T18:56:12.000Z</time>
      </trkpt>
      <trkpt lat="48.86053" lon="2.34941">
        <ele>21.39999961853</ele>
        <time>2015-09-28T18:56:16.000Z</time>
      </trkpt>
      <trkpt lat="48.8607" lon="2.34951">
        <ele>23</ele>
        <time>2015-09-28T18:56:19.000Z</time>
      </trkpt>
      <trkpt lat="48.8609" lon="2.34964">
        <ele>24.200000762939</ele>
        <time>2015-09-28T18:56:24.000Z</time>
      </trkpt>
      <trkpt lat="48.86095" lon="2.34967">
        <ele>24.799999237061</ele>
        <time>2015-09-28T18:56:25.000Z</time>
      </trkpt>
      <trkpt lat="48.86113" lon="2.34976">
        <ele>27</ele>
        <time>2015-09-28T18:56:29.000Z</time>
      </trkpt>
      <trkpt lat="48.86129" lon="2.34986">
        <ele>28.39999961853</ele>
        <time>2015-09-28T18:56:33.000Z</time>
      </trkpt>
      <trkpt lat="48.86143" lon="2.34993">
        <ele>28.39999961853</ele>
        <time>2015-09-28T18:56:37.000Z</time>
      </trkpt>
      <trkpt lat="48.86147" lon="2.34994">
        <ele>29</ele>
        <time>2015-09-28T18:56:38.000Z</time>
      </trkpt>
      <trkpt lat="48.86166" lon="2.35">
        <ele>31</ele>
        <time>2015-09-28T18:56:45.000Z</time>
      </trkpt>
      <trkpt lat="48.86172" lon="2.35002">
        <ele>31.60000038147</ele>
        <time>2015-09-28T18:56:48.000Z</time>
      </trkpt>
      <trkpt lat="48.86179" lon="2.35006">
        <ele>32.799999237061</ele>
        <time>2015-09-28T18:56:53.000Z</time>
      </trkpt>
      <trkpt lat="48.86197" lon="2.35018">
        <ele>33.400001525879</ele>
        <time>2015-09-28T18:57:00.000Z</time>
      </trkpt>
      <trkpt lat="48.86216" lon="2.35029">
        <ele>34.599998474121</ele>
        <time>2015-09-28T18:57:07.000Z</time>
      </trkpt>
      <trkpt lat="48.86236" lon="2.35039">
        <ele>34.799999237061</ele>
        <time>2015-09-28T18:57:12.000Z</time>
      </trkpt>
      <trkpt lat="48.86255" lon="2.35048">
        <ele>35.200000762939</ele>
        <time>2015-09-28T18:57:16.000Z</time>
      </trkpt>
      <trkpt lat="48.86273" lon="2.35059">
        <ele>34.799999237061</ele>
        <time>2015-09-28T18:57:21.000Z</time>
      </trkpt>
      <trkpt lat="48.86293" lon="2.35072">
        <ele>33.400001525879</ele>
        <time>2015-09-28T18:57:26.000Z</time>
      </trkpt>
      <trkpt lat="48.8631" lon="2.35083">
        <ele>33.200000762939</ele>
        <time>2015-09-28T18:57:30.000Z</time>
      </trkpt>
      <trkpt lat="48.86329" lon="2.35089">
        <ele>33.200000762939</ele>
        <time>2015-09-28T18:57:36.000Z</time>
      </trkpt>
      <trkpt lat="48.86347" lon="2.351">
        <ele>31.60000038147</ele>
        <time>2015-09-28T18:57:43.000Z</time>
      </trkpt>
      <trkpt lat="48.86365" lon="2.35114">
        <ele>30</ele>
        <time>2015-09-28T18:57:49.000Z</time>
      </trkpt>
      <trkpt lat="48.86386" lon="2.35128">
        <ele>29.60000038147</ele>
        <time>2015-09-28T18:57:53.000Z</time>
      </trkpt>
      <trkpt lat="48.86403" lon="2.35137">
        <ele>28</ele>
        <time>2015-09-28T18:57:56.000Z</time>
      </trkpt>
      <trkpt lat="48.86425" lon="2.35148">
        <ele>26.60000038147</ele>
        <time>2015-09-28T18:58:00.000Z</time>
      </trkpt>
      <trkpt lat="48.86443" lon="2.35162">
        <ele>25.39999961853</ele>
        <time>2015-09-28T18:58:04.000Z</time>
      </trkpt>
      <trkpt lat="48.86461" lon="2.35173">
        <ele>24.60000038147</ele>
        <time>2015-09-28T18:58:08.000Z</time>
      </trkpt>
      <trkpt lat="48.86477" lon="2.3518">
        <ele>24.799999237061</ele>
        <time>2015-09-28T18:58:11.000Z</time>
      </trkpt>
      <trkpt lat="48.86497" lon="2.35188">
        <ele>24.39999961853</ele>
        <time>2015-09-28T18:58:15.000Z</time>
      </trkpt>
      <trkpt lat="48.86514" lon="2.35198">
        <ele>23.39999961853</ele>
        <time>2015-09-28T18:58:19.000Z</time>
      </trkpt>
      <trkpt lat="48.86524" lon="2.35205">
        <ele>23.200000762939</ele>
        <time>2015-09-28T18:58:22.000Z</time>
      </trkpt>
      <trkpt lat="48.86538" lon="2.35211">
        <ele>24</ele>
        <time>2015-09-28T18:58:27.000Z</time>
      </trkpt>
      <trkpt lat="48.86555" lon="2.35223">
        <ele>23.39999961853</ele>
        <time>2015-09-28T18:58:32.000Z</time>
      </trkpt>
      <trkpt lat="48.86575" lon="2.35235">
        <ele>23.200000762939</ele>
        <time>2015-09-28T18:58:37.000Z</time>
      </trkpt>
      <trkpt lat="48.86582" lon="2.3524">
        <ele>23.200000762939</ele>
        <time>2015-09-28T18:58:39.000Z</time>
      </trkpt>
      <trkpt lat="48.86596" lon="2.3525">
        <ele>22.39999961853</ele>
        <time>2015-09-28T18:58:44.000Z</time>
      </trkpt>
      <trkpt lat="48.86614" lon="2.35254">
        <ele>22.39999961853</ele>
        <time>2015-09-28T18:58:50.000Z</time>
      </trkpt>
      <trkpt lat="48.86617" lon="2.35256">
        <ele>22.39999961853</ele>
        <time>2015-09-28T18:58:51.000Z</time>
      </trkpt>
      <trkpt lat="48.86636" lon="2.3527">
        <ele>21.60000038147</ele>
        <time>2015-09-28T18:58:57.000Z</time>
      </trkpt>
      <trkpt lat="48.86655" lon="2.35285">
        <ele>20.200000762939</ele>
        <time>2015-09-28T18:59:03.000Z</time>
      </trkpt>
      <trkpt lat="48.86676" lon="2.35293">
        <ele>18.39999961853</ele>
        <time>2015-09-28T18:59:07.000Z</time>
      </trkpt>
      <trkpt lat="48.86699" lon="2.35301">
        <ele>18.60000038147</ele>
        <time>2015-09-28T18:59:11.000Z</time>
      </trkpt>
      <trkpt lat="48.86721" lon="2.35308">
        <ele>19.60000038147</ele>
        <time>2015-09-28T18:59:15.000Z</time>
      </trkpt>
      <trkpt lat="48.86742" lon="2.35315">
        <ele>20.200000762939</ele>
        <time>2015-09-28T18:59:19.000Z</time>
      </trkpt>
      <trkpt lat="48.86764" lon="2.35324">
        <ele>20.799999237061</ele>
        <time>2015-09-28T18:59:23.000Z</time>
      </trkpt>
      <trkpt lat="48.86784" lon="2.35329">
        <ele>20.60000038147</ele>
        <time>2015-09-28T18:59:27.000Z</time>
      </trkpt>
      <trkpt lat="48.86802" lon="2.35337">
        <ele>21.39999961853</ele>
        <time>2015-09-28T18:59:32.000Z</time>
      </trkpt>
      <trkpt lat="48.8681" lon="2.35343">
        <ele>23.799999237061</ele>
        <time>2015-09-28T18:59:37.000Z</time>
      </trkpt>
      <trkpt lat="48.8683" lon="2.35351">
        <ele>24.200000762939</ele>
        <time>2015-09-28T18:59:43.000Z</time>
      </trkpt>
      <trkpt lat="48.86837" lon="2.35355">
        <ele>24.200000762939</ele>
        <time>2015-09-28T18:59:45.000Z</time>
      </trkpt>
      <trkpt lat="48.86846" lon="2.3536">
        <ele>25.200000762939</ele>
        <time>2015-09-28T18:59:49.000Z</time>
      </trkpt>
      <trkpt lat="48.86858" lon="2.35377">
        <ele>26.39999961853</ele>
        <time>2015-09-28T18:59:56.000Z</time>
      </trkpt>
      <trkpt lat="48.86866" lon="2.35348">
        <ele>32.400001525879</ele>
        <time>2015-09-28T19:00:05.000Z</time>
      </trkpt>
      <trkpt lat="48.86875" lon="2.35318">
        <ele>34.400001525879</ele>
        <time>2015-09-28T19:00:10.000Z</time>
      </trkpt>
      <trkpt lat="48.86884" lon="2.35292">
        <ele>35.599998474121</ele>
        <time>2015-09-28T19:00:14.000Z</time>
      </trkpt>
      <trkpt lat="48.86888" lon="2.35265">
        <ele>37.799999237061</ele>
        <time>2015-09-28T19:00:19.000Z</time>
      </trkpt>
      <trkpt lat="48.8689" lon="2.35237">
        <ele>39</ele>
        <time>2015-09-28T19:00:27.000Z</time>
      </trkpt>
      <trkpt lat="48.86886" lon="2.35234">
        <ele>41</ele>
        <time>2015-09-28T19:00:30.000Z</time>
      </trkpt>
      <trkpt lat="48.8688" lon="2.35219">
        <ele>45.200000762939</ele>
        <time>2015-09-28T19:00:54.000Z</time>
      </trkpt>
      <trkpt lat="48.86879" lon="2.35195">
        <ele>46.799999237061</ele>
        <time>2015-09-28T19:01:03.000Z</time>
      </trkpt>
      <trkpt lat="48.86898" lon="2.35189">
        <ele>48.200000762939</ele>
        <time>2015-09-28T19:01:08.000Z</time>
      </trkpt>
      <trkpt lat="48.86906" lon="2.35186">
        <ele>48.200000762939</ele>
        <time>2015-09-28T19:01:10.000Z</time>
      </trkpt>
      <trkpt lat="48.86925" lon="2.35177">
        <ele>49.200000762939</ele>
        <time>2015-09-28T19:01:14.000Z</time>
      </trkpt>
      <trkpt lat="48.86935" lon="2.35167">
        <ele>50.400001525879</ele>
        <time>2015-09-28T19:01:17.000Z</time>
      </trkpt>
      <trkpt lat="48.8694" lon="2.35143">
        <ele>52.200000762939</ele>
        <time>2015-09-28T19:01:24.000Z</time>
      </trkpt>
      <trkpt lat="48.86939" lon="2.35137">
        <ele>52.599998474121</ele>
        <time>2015-09-28T19:01:25.000Z</time>
      </trkpt>
      <trkpt lat="48.86937" lon="2.35107">
        <ele>53.599998474121</ele>
        <time>2015-09-28T19:01:30.000Z</time>
      </trkpt>
      <trkpt lat="48.86932" lon="2.35078">
        <ele>54.200000762939</ele>
        <time>2015-09-28T19:01:34.000Z</time>
      </trkpt>
      <trkpt lat="48.86929" lon="2.35049">
        <ele>53.200000762939</ele>
        <time>2015-09-28T19:01:38.000Z</time>
      </trkpt>
      <trkpt lat="48.86922" lon="2.35024">
        <ele>52.400001525879</ele>
        <time>2015-09-28T19:01:42.000Z</time>
      </trkpt>
      <trkpt lat="48.86915" lon="2.34993">
        <ele>50.599998474121</ele>
        <time>2015-09-28T19:01:47.000Z</time>
      </trkpt>
      <trkpt lat="48.86913" lon="2.34985">
        <ele>50</ele>
        <time>2015-09-28T19:01:49.000Z</time>
      </trkpt>
      <trkpt lat="48.86917" lon="2.34984">
        <ele>49.200000762939</ele>
        <time>2015-09-28T19:01:52.000Z</time>
      </trkpt>
      <trkpt lat="48.86935" lon="2.34989">
        <ele>49.799999237061</ele>
        <time>2015-09-28T19:01:56.000Z</time>
      </trkpt>
      <trkpt lat="48.86939" lon="2.34991">
        <ele>49.599998474121</ele>
        <time>2015-09-28T19:01:57.000Z</time>
      </trkpt>
      <trkpt lat="48.86963" lon="2.3499">
        <ele>49.599998474121</ele>
        <time>2015-09-28T19:02:01.000Z</time>
      </trkpt>
      <trkpt lat="48.86974" lon="2.34996">
        <ele>49.799999237061</ele>
        <time>2015-09-28T19:02:05.000Z</time>
      </trkpt>
      <trkpt lat="48.86983" lon="2.34987">
        <ele>49.599998474121</ele>
        <time>2015-09-28T19:02:47.000Z</time>
      </trkpt>
      <trkpt lat="48.86983" lon="2.34983">
        <ele>50.599998474121</ele>
        <time>2015-09-28T19:03:01.000Z</time>
      </trkpt>
    </trkseg>
  </trk>
</gpx>